sensor_id;sensor_type;location;lat;lon;timestamp;P1;durP1;ratioP1;P2;durP2;ratioP2
54993;SDS011;40891;47.242;8.648;2022-07-23T00:01:14;11.98;;;9.52;;
54993;SDS011;40891;47.242;8.648;2022-07-23T00:03:40;13.95;;;10.43;;
54993;SDS011;40891;47.242;8.648;2022-07-23T00:06:05;13.57;;;8.52;;
54993;SDS011;40891;47.242;8.648;2022-07-23T00:08:31;14.85;;;8.82;;
54993;SDS011;40891;47.242;8.648;2022-07-23T00:10:56;13.07;;;9.02;;
54993;SDS011;40891;47.242;8.648;2022-07-23T00:13:21;11.73;;;9.02;;
54993;SDS011;40891;47.242;8.648;2022-07-23T00:15:46;13.27;;;8.75;;
54993;SDS011;40891;47.242;8.648;2022-07-23T00:18:12;13.77;;;9.70;;
54993;SDS011;40891;47.242;8.648;2022-07-23T00:20:37;11.02;;;8.55;;
54993;SDS011;40891;47.242;8.648;2022-07-23T00:23:02;10.13;;;8.65;;
54993;SDS011;40891;47.242;8.648;2022-07-23T00:25:28;10.38;;;8.20;;
54993;SDS011;40891;47.242;8.648;2022-07-23T00:27:53;12.07;;;8.95;;
54993;SDS011;40891;47.242;8.648;2022-07-23T00:30:18;10.68;;;8.82;;
54993;SDS011;40891;47.242;8.648;2022-07-23T00:33:03;12.38;;;9.20;;
54993;SDS011;40891;47.242;8.648;2022-07-23T00:35:31;17.15;;;9.60;;
54993;SDS011;40891;47.242;8.648;2022-07-23T00:37:59;13.07;;;9.13;;
54993;SDS011;40891;47.242;8.648;2022-07-23T00:40:26;12.80;;;8.80;;
54993;SDS011;40891;47.242;8.648;2022-07-23T00:42:52;10.60;;;8.68;;
54993;SDS011;40891;47.242;8.648;2022-07-23T00:45:18;13.25;;;8.60;;
54993;SDS011;40891;47.242;8.648;2022-07-23T00:47:44;11.07;;;8.98;;
54993;SDS011;40891;47.242;8.648;2022-07-23T00:50:09;10.85;;;8.40;;
54993;SDS011;40891;47.242;8.648;2022-07-23T00:52:36;11.65;;;8.93;;
54993;SDS011;40891;47.242;8.648;2022-07-23T00:55:02;12.30;;;8.98;;
54993;SDS011;40891;47.242;8.648;2022-07-23T00:57:28;13.45;;;9.23;;
54993;SDS011;40891;47.242;8.648;2022-07-23T00:59:54;12.02;;;9.35;;
54993;SDS011;40891;47.242;8.648;2022-07-23T01:02:19;14.10;;;9.00;;
54993;SDS011;40891;47.242;8.648;2022-07-23T01:04:45;13.30;;;10.23;;
54993;SDS011;40891;47.242;8.648;2022-07-23T01:07:10;13.88;;;9.77;;
54993;SDS011;40891;47.242;8.648;2022-07-23T01:09:36;13.65;;;8.88;;
54993;SDS011;40891;47.242;8.648;2022-07-23T01:12:02;11.90;;;8.75;;
54993;SDS011;40891;47.242;8.648;2022-07-23T01:14:28;9.48;;;8.48;;
54993;SDS011;40891;47.242;8.648;2022-07-23T01:16:53;9.98;;;8.85;;
54993;SDS011;40891;47.242;8.648;2022-07-23T01:19:18;14.63;;;8.50;;
54993;SDS011;40891;47.242;8.648;2022-07-23T01:21:45;10.70;;;8.55;;
54993;SDS011;40891;47.242;8.648;2022-07-23T01:24:12;9.73;;;8.68;;
54993;SDS011;40891;47.242;8.648;2022-07-23T01:26:41;12.10;;;8.85;;
54993;SDS011;40891;47.242;8.648;2022-07-23T01:29:07;10.77;;;8.85;;
54993;SDS011;40891;47.242;8.648;2022-07-23T01:31:33;10.85;;;8.45;;
54993;SDS011;40891;47.242;8.648;2022-07-23T01:33:58;12.27;;;8.70;;
54993;SDS011;40891;47.242;8.648;2022-07-23T01:36:23;17.55;;;9.23;;
54993;SDS011;40891;47.242;8.648;2022-07-23T01:38:49;14.35;;;10.07;;
54993;SDS011;40891;47.242;8.648;2022-07-23T01:41:15;12.55;;;8.85;;
54993;SDS011;40891;47.242;8.648;2022-07-23T01:43:41;14.90;;;9.13;;
54993;SDS011;40891;47.242;8.648;2022-07-23T01:46:07;12.38;;;9.05;;
54993;SDS011;40891;47.242;8.648;2022-07-23T01:48:32;11.73;;;9.57;;
54993;SDS011;40891;47.242;8.648;2022-07-23T01:50:57;12.65;;;9.60;;
54993;SDS011;40891;47.242;8.648;2022-07-23T01:53:23;12.48;;;9.27;;
54993;SDS011;40891;47.242;8.648;2022-07-23T01:55:49;10.27;;;8.73;;
54993;SDS011;40891;47.242;8.648;2022-07-23T01:58:14;11.00;;;7.72;;
54993;SDS011;40891;47.242;8.648;2022-07-23T02:00:40;11.32;;;8.27;;
54993;SDS011;40891;47.242;8.648;2022-07-23T02:03:05;11.65;;;7.78;;
54993;SDS011;40891;47.242;8.648;2022-07-23T02:05:31;12.50;;;8.48;;
54993;SDS011;40891;47.242;8.648;2022-07-23T02:07:57;11.60;;;8.30;;
54993;SDS011;40891;47.242;8.648;2022-07-23T02:10:24;11.20;;;8.13;;
54993;SDS011;40891;47.242;8.648;2022-07-23T02:12:49;10.55;;;7.45;;
54993;SDS011;40891;47.242;8.648;2022-07-23T02:15:15;13.93;;;7.65;;
54993;SDS011;40891;47.242;8.648;2022-07-23T02:17:40;11.55;;;8.57;;
54993;SDS011;40891;47.242;8.648;2022-07-23T02:20:06;14.68;;;9.00;;
54993;SDS011;40891;47.242;8.648;2022-07-23T02:22:32;12.25;;;8.65;;
54993;SDS011;40891;47.242;8.648;2022-07-23T02:24:58;12.07;;;7.97;;
54993;SDS011;40891;47.242;8.648;2022-07-23T02:27:23;16.50;;;9.00;;
54993;SDS011;40891;47.242;8.648;2022-07-23T02:29:48;10.93;;;8.15;;
54993;SDS011;40891;47.242;8.648;2022-07-23T02:32:14;10.50;;;8.38;;
54993;SDS011;40891;47.242;8.648;2022-07-23T02:34:39;13.10;;;8.55;;
54993;SDS011;40891;47.242;8.648;2022-07-23T02:37:05;12.57;;;8.90;;
54993;SDS011;40891;47.242;8.648;2022-07-23T02:39:30;10.00;;;8.10;;
54993;SDS011;40891;47.242;8.648;2022-07-23T02:41:55;11.55;;;8.40;;
54993;SDS011;40891;47.242;8.648;2022-07-23T02:44:21;13.73;;;8.57;;
54993;SDS011;40891;47.242;8.648;2022-07-23T02:46:46;11.40;;;8.60;;
54993;SDS011;40891;47.242;8.648;2022-07-23T02:49:11;12.07;;;8.73;;
54993;SDS011;40891;47.242;8.648;2022-07-23T02:51:36;12.35;;;8.35;;
54993;SDS011;40891;47.242;8.648;2022-07-23T02:54:02;9.23;;;8.25;;
54993;SDS011;40891;47.242;8.648;2022-07-23T02:56:27;9.02;;;7.57;;
54993;SDS011;40891;47.242;8.648;2022-07-23T02:58:53;11.10;;;8.05;;
54993;SDS011;40891;47.242;8.648;2022-07-23T03:01:18;11.57;;;8.30;;
54993;SDS011;40891;47.242;8.648;2022-07-23T03:03:43;9.40;;;7.95;;
54993;SDS011;40891;47.242;8.648;2022-07-23T03:06:08;10.40;;;8.32;;
54993;SDS011;40891;47.242;8.648;2022-07-23T03:08:34;9.85;;;7.68;;
54993;SDS011;40891;47.242;8.648;2022-07-23T03:10:59;9.50;;;8.10;;
54993;SDS011;40891;47.242;8.648;2022-07-23T03:13:24;11.10;;;8.70;;
54993;SDS011;40891;47.242;8.648;2022-07-23T03:15:50;12.82;;;8.13;;
54993;SDS011;40891;47.242;8.648;2022-07-23T03:18:15;10.82;;;8.60;;
54993;SDS011;40891;47.242;8.648;2022-07-23T03:20:41;13.15;;;9.10;;
54993;SDS011;40891;47.242;8.648;2022-07-23T03:23:06;13.35;;;9.05;;
54993;SDS011;40891;47.242;8.648;2022-07-23T03:25:32;13.10;;;10.27;;
54993;SDS011;40891;47.242;8.648;2022-07-23T03:27:57;14.30;;;9.55;;
54993;SDS011;40891;47.242;8.648;2022-07-23T03:30:22;15.07;;;9.60;;
54993;SDS011;40891;47.242;8.648;2022-07-23T03:32:48;9.73;;;7.18;;
54993;SDS011;40891;47.242;8.648;2022-07-23T03:35:13;14.63;;;8.50;;
54993;SDS011;40891;47.242;8.648;2022-07-23T03:37:38;12.98;;;9.25;;
54993;SDS011;40891;47.242;8.648;2022-07-23T03:40:04;18.23;;;10.50;;
54993;SDS011;40891;47.242;8.648;2022-07-23T03:42:31;11.50;;;10.00;;
54993;SDS011;40891;47.242;8.648;2022-07-23T03:44:56;12.85;;;9.65;;
54993;SDS011;40891;47.242;8.648;2022-07-23T03:47:21;13.40;;;10.25;;
54993;SDS011;40891;47.242;8.648;2022-07-23T03:49:47;15.52;;;10.00;;
54993;SDS011;40891;47.242;8.648;2022-07-23T03:52:13;12.32;;;10.27;;
54993;SDS011;40891;47.242;8.648;2022-07-23T03:54:39;11.93;;;10.20;;
54993;SDS011;40891;47.242;8.648;2022-07-23T03:57:04;12.45;;;9.45;;
54993;SDS011;40891;47.242;8.648;2022-07-23T03:59:30;12.20;;;10.98;;
54993;SDS011;40891;47.242;8.648;2022-07-23T04:01:55;16.20;;;10.10;;
54993;SDS011;40891;47.242;8.648;2022-07-23T04:04:20;12.15;;;10.35;;
54993;SDS011;40891;47.242;8.648;2022-07-23T04:06:46;13.25;;;9.20;;
54993;SDS011;40891;47.242;8.648;2022-07-23T04:09:11;10.48;;;9.38;;
54993;SDS011;40891;47.242;8.648;2022-07-23T04:11:36;16.25;;;9.25;;
54993;SDS011;40891;47.242;8.648;2022-07-23T04:14:02;12.52;;;9.38;;
54993;SDS011;40891;47.242;8.648;2022-07-23T04:16:27;11.32;;;9.45;;
54993;SDS011;40891;47.242;8.648;2022-07-23T04:18:53;13.43;;;10.05;;
54993;SDS011;40891;47.242;8.648;2022-07-23T04:21:19;12.07;;;9.13;;
54993;SDS011;40891;47.242;8.648;2022-07-23T04:23:44;12.45;;;9.55;;
54993;SDS011;40891;47.242;8.648;2022-07-23T04:26:09;14.05;;;9.63;;
54993;SDS011;40891;47.242;8.648;2022-07-23T04:28:35;10.48;;;8.77;;
54993;SDS011;40891;47.242;8.648;2022-07-23T04:31:00;10.18;;;9.00;;
54993;SDS011;40891;47.242;8.648;2022-07-23T04:33:25;13.30;;;9.48;;
54993;SDS011;40891;47.242;8.648;2022-07-23T04:35:51;10.68;;;8.82;;
54993;SDS011;40891;47.242;8.648;2022-07-23T04:38:16;10.30;;;8.25;;
54993;SDS011;40891;47.242;8.648;2022-07-23T04:40:41;15.43;;;8.65;;
54993;SDS011;40891;47.242;8.648;2022-07-23T04:43:07;14.43;;;9.10;;
54993;SDS011;40891;47.242;8.648;2022-07-23T04:45:32;12.80;;;9.32;;
54993;SDS011;40891;47.242;8.648;2022-07-23T04:47:57;10.93;;;9.73;;
54993;SDS011;40891;47.242;8.648;2022-07-23T04:50:23;9.73;;;8.27;;
54993;SDS011;40891;47.242;8.648;2022-07-23T04:52:49;13.57;;;9.30;;
54993;SDS011;40891;47.242;8.648;2022-07-23T04:55:14;15.20;;;9.43;;
54993;SDS011;40891;47.242;8.648;2022-07-23T04:57:40;11.55;;;8.93;;
54993;SDS011;40891;47.242;8.648;2022-07-23T05:00:05;10.82;;;9.38;;
54993;SDS011;40891;47.242;8.648;2022-07-23T05:02:31;14.73;;;9.85;;
54993;SDS011;40891;47.242;8.648;2022-07-23T05:04:57;11.38;;;8.88;;
54993;SDS011;40891;47.242;8.648;2022-07-23T05:07:22;12.23;;;8.95;;
54993;SDS011;40891;47.242;8.648;2022-07-23T05:09:47;12.05;;;8.82;;
54993;SDS011;40891;47.242;8.648;2022-07-23T05:12:12;11.45;;;9.20;;
54993;SDS011;40891;47.242;8.648;2022-07-23T05:14:38;11.50;;;9.15;;
54993;SDS011;40891;47.242;8.648;2022-07-23T05:17:03;14.30;;;9.63;;
54993;SDS011;40891;47.242;8.648;2022-07-23T05:19:29;10.98;;;9.48;;
54993;SDS011;40891;47.242;8.648;2022-07-23T05:21:54;10.88;;;9.18;;
54993;SDS011;40891;47.242;8.648;2022-07-23T05:24:19;13.38;;;9.32;;
54993;SDS011;40891;47.242;8.648;2022-07-23T05:26:45;12.77;;;9.32;;
54993;SDS011;40891;47.242;8.648;2022-07-23T05:29:10;13.98;;;10.45;;
54993;SDS011;40891;47.242;8.648;2022-07-23T05:31:35;14.32;;;9.80;;
54993;SDS011;40891;47.242;8.648;2022-07-23T05:34:00;11.48;;;9.80;;
54993;SDS011;40891;47.242;8.648;2022-07-23T05:36:26;12.02;;;9.45;;
54993;SDS011;40891;47.242;8.648;2022-07-23T05:38:51;11.40;;;9.18;;
54993;SDS011;40891;47.242;8.648;2022-07-23T05:41:17;14.98;;;10.00;;
54993;SDS011;40891;47.242;8.648;2022-07-23T05:43:42;12.52;;;9.15;;
54993;SDS011;40891;47.242;8.648;2022-07-23T05:46:07;10.75;;;9.65;;
54993;SDS011;40891;47.242;8.648;2022-07-23T05:48:33;13.75;;;9.70;;
54993;SDS011;40891;47.242;8.648;2022-07-23T05:50:58;12.88;;;10.10;;
54993;SDS011;40891;47.242;8.648;2022-07-23T05:53:23;11.63;;;10.10;;
54993;SDS011;40891;47.242;8.648;2022-07-23T05:55:48;11.60;;;9.25;;
54993;SDS011;40891;47.242;8.648;2022-07-23T05:58:14;13.73;;;9.93;;
54993;SDS011;40891;47.242;8.648;2022-07-23T06:00:39;14.25;;;9.52;;
54993;SDS011;40891;47.242;8.648;2022-07-23T06:03:04;11.25;;;10.07;;
54993;SDS011;40891;47.242;8.648;2022-07-23T06:05:30;13.90;;;9.23;;
54993;SDS011;40891;47.242;8.648;2022-07-23T06:07:55;12.80;;;9.70;;
54993;SDS011;40891;47.242;8.648;2022-07-23T06:10:20;11.52;;;10.32;;
54993;SDS011;40891;47.242;8.648;2022-07-23T06:12:46;12.90;;;10.52;;
54993;SDS011;40891;47.242;8.648;2022-07-23T06:15:11;14.85;;;9.85;;
54993;SDS011;40891;47.242;8.648;2022-07-23T06:17:37;14.88;;;9.75;;
54993;SDS011;40891;47.242;8.648;2022-07-23T06:20:06;13.13;;;10.35;;
54993;SDS011;40891;47.242;8.648;2022-07-23T06:22:33;15.38;;;11.15;;
54993;SDS011;40891;47.242;8.648;2022-07-23T06:24:59;16.05;;;11.05;;
54993;SDS011;40891;47.242;8.648;2022-07-23T06:27:24;15.35;;;11.60;;
54993;SDS011;40891;47.242;8.648;2022-07-23T06:29:49;17.27;;;10.60;;
54993;SDS011;40891;47.242;8.648;2022-07-23T06:32:15;16.40;;;11.55;;
54993;SDS011;40891;47.242;8.648;2022-07-23T06:34:40;14.68;;;10.02;;
54993;SDS011;40891;47.242;8.648;2022-07-23T06:37:06;16.83;;;10.93;;
54993;SDS011;40891;47.242;8.648;2022-07-23T06:39:31;13.07;;;10.40;;
54993;SDS011;40891;47.242;8.648;2022-07-23T06:41:56;13.48;;;11.07;;
54993;SDS011;40891;47.242;8.648;2022-07-23T06:44:22;15.63;;;11.15;;
54993;SDS011;40891;47.242;8.648;2022-07-23T06:46:47;15.82;;;11.82;;
54993;SDS011;40891;47.242;8.648;2022-07-23T06:49:12;14.55;;;12.20;;
54993;SDS011;40891;47.242;8.648;2022-07-23T06:51:38;15.32;;;11.55;;
54993;SDS011;40891;47.242;8.648;2022-07-23T06:54:03;14.20;;;11.00;;
54993;SDS011;40891;47.242;8.648;2022-07-23T06:56:29;17.17;;;11.93;;
54993;SDS011;40891;47.242;8.648;2022-07-23T06:58:54;16.13;;;11.10;;
54993;SDS011;40891;47.242;8.648;2022-07-23T07:01:19;15.48;;;11.10;;
54993;SDS011;40891;47.242;8.648;2022-07-23T07:03:45;15.73;;;11.25;;
54993;SDS011;40891;47.242;8.648;2022-07-23T07:06:10;16.95;;;11.77;;
54993;SDS011;40891;47.242;8.648;2022-07-23T07:08:36;18.60;;;12.02;;
54993;SDS011;40891;47.242;8.648;2022-07-23T07:11:01;18.85;;;12.07;;
54993;SDS011;40891;47.242;8.648;2022-07-23T07:13:26;13.50;;;11.20;;
54993;SDS011;40891;47.242;8.648;2022-07-23T07:15:52;13.77;;;10.32;;
54993;SDS011;40891;47.242;8.648;2022-07-23T07:18:17;17.67;;;11.23;;
54993;SDS011;40891;47.242;8.648;2022-07-23T07:20:42;14.70;;;10.63;;
54993;SDS011;40891;47.242;8.648;2022-07-23T07:23:08;17.70;;;10.95;;
54993;SDS011;40891;47.242;8.648;2022-07-23T07:25:33;19.55;;;11.10;;
54993;SDS011;40891;47.242;8.648;2022-07-23T07:27:58;14.00;;;10.82;;
54993;SDS011;40891;47.242;8.648;2022-07-23T07:30:24;14.43;;;11.55;;
54993;SDS011;40891;47.242;8.648;2022-07-23T07:32:49;16.65;;;11.57;;
54993;SDS011;40891;47.242;8.648;2022-07-23T07:35:14;14.65;;;11.38;;
54993;SDS011;40891;47.242;8.648;2022-07-23T07:37:40;15.23;;;12.05;;
54993;SDS011;40891;47.242;8.648;2022-07-23T07:40:05;17.05;;;11.50;;
54993;SDS011;40891;47.242;8.648;2022-07-23T07:42:31;14.95;;;12.07;;
54993;SDS011;40891;47.242;8.648;2022-07-23T07:44:57;13.07;;;11.00;;
54993;SDS011;40891;47.242;8.648;2022-07-23T07:47:22;14.90;;;11.48;;
54993;SDS011;40891;47.242;8.648;2022-07-23T07:49:47;12.70;;;11.07;;
54993;SDS011;40891;47.242;8.648;2022-07-23T07:52:13;12.15;;;10.18;;
54993;SDS011;40891;47.242;8.648;2022-07-23T07:54:38;13.82;;;10.52;;
54993;SDS011;40891;47.242;8.648;2022-07-23T07:57:03;12.15;;;10.40;;
54993;SDS011;40891;47.242;8.648;2022-07-23T07:59:29;14.90;;;10.20;;
54993;SDS011;40891;47.242;8.648;2022-07-23T08:01:54;13.93;;;10.73;;
54993;SDS011;40891;47.242;8.648;2022-07-23T08:04:20;13.60;;;10.32;;
54993;SDS011;40891;47.242;8.648;2022-07-23T08:06:45;12.35;;;9.57;;
54993;SDS011;40891;47.242;8.648;2022-07-23T08:09:10;13.43;;;9.45;;
54993;SDS011;40891;47.242;8.648;2022-07-23T08:11:36;10.88;;;9.23;;
54993;SDS011;40891;47.242;8.648;2022-07-23T08:14:01;13.32;;;8.27;;
54993;SDS011;40891;47.242;8.648;2022-07-23T08:16:27;9.50;;;7.95;;
54993;SDS011;40891;47.242;8.648;2022-07-23T08:18:52;15.20;;;9.77;;
54993;SDS011;40891;47.242;8.648;2022-07-23T08:21:18;11.82;;;9.25;;
54993;SDS011;40891;47.242;8.648;2022-07-23T08:23:43;11.90;;;9.35;;
54993;SDS011;40891;47.242;8.648;2022-07-23T08:26:08;12.00;;;8.45;;
54993;SDS011;40891;47.242;8.648;2022-07-23T08:28:33;11.18;;;8.45;;
54993;SDS011;40891;47.242;8.648;2022-07-23T08:30:59;9.23;;;8.07;;
54993;SDS011;40891;47.242;8.648;2022-07-23T08:33:24;12.63;;;9.25;;
54993;SDS011;40891;47.242;8.648;2022-07-23T08:35:50;11.30;;;9.32;;
54993;SDS011;40891;47.242;8.648;2022-07-23T08:38:19;15.02;;;8.45;;
54993;SDS011;40891;47.242;8.648;2022-07-23T08:40:47;10.13;;;7.55;;
54993;SDS011;40891;47.242;8.648;2022-07-23T08:43:23;12.02;;;8.75;;
54993;SDS011;40891;47.242;8.648;2022-07-23T08:45:54;12.43;;;8.60;;
54993;SDS011;40891;47.242;8.648;2022-07-23T08:48:23;10.50;;;8.40;;
54993;SDS011;40891;47.242;8.648;2022-07-23T08:50:54;13.40;;;9.15;;
54993;SDS011;40891;47.242;8.648;2022-07-23T08:53:22;11.73;;;7.95;;
54993;SDS011;40891;47.242;8.648;2022-07-23T08:55:49;12.93;;;9.05;;
54993;SDS011;40891;47.242;8.648;2022-07-23T08:58:16;10.45;;;8.40;;
54993;SDS011;40891;47.242;8.648;2022-07-23T09:00:42;10.90;;;9.40;;
54993;SDS011;40891;47.242;8.648;2022-07-23T09:03:15;10.95;;;8.20;;
54993;SDS011;40891;47.242;8.648;2022-07-23T09:05:43;11.10;;;8.27;;
54993;SDS011;40891;47.242;8.648;2022-07-23T09:08:10;11.52;;;8.32;;
54993;SDS011;40891;47.242;8.648;2022-07-23T09:26:21;10.43;;;7.10;;
54993;SDS011;40891;47.242;8.648;2022-07-23T09:28:50;11.50;;;7.05;;
54993;SDS011;40891;47.242;8.648;2022-07-23T09:31:20;11.23;;;7.75;;
54993;SDS011;40891;47.242;8.648;2022-07-23T09:33:47;10.02;;;7.65;;
54993;SDS011;40891;47.242;8.648;2022-07-23T09:36:12;9.98;;;6.93;;
54993;SDS011;40891;47.242;8.648;2022-07-23T09:38:48;9.55;;;6.70;;
54993;SDS011;40891;47.242;8.648;2022-07-23T09:41:14;10.52;;;6.70;;
54993;SDS011;40891;47.242;8.648;2022-07-23T09:43:40;9.07;;;6.55;;
54993;SDS011;40891;47.242;8.648;2022-07-23T09:46:18;13.07;;;7.60;;
54993;SDS011;40891;47.242;8.648;2022-07-23T09:48:46;10.60;;;7.32;;
54993;SDS011;40891;47.242;8.648;2022-07-23T09:51:12;8.07;;;7.28;;
54993;SDS011;40891;47.242;8.648;2022-07-23T09:53:41;8.75;;;7.53;;
54993;SDS011;40891;47.242;8.648;2022-07-23T09:56:06;8.48;;;7.30;;
54993;SDS011;40891;47.242;8.648;2022-07-23T09:58:32;8.18;;;7.32;;
54993;SDS011;40891;47.242;8.648;2022-07-23T10:01:08;11.27;;;7.18;;
54993;SDS011;40891;47.242;8.648;2022-07-23T10:03:34;10.98;;;7.18;;
54993;SDS011;40891;47.242;8.648;2022-07-23T10:06:00;8.45;;;7.22;;
54993;SDS011;40891;47.242;8.648;2022-07-23T10:08:25;9.57;;;7.70;;
54993;SDS011;40891;47.242;8.648;2022-07-23T10:10:51;8.50;;;7.22;;
54993;SDS011;40891;47.242;8.648;2022-07-23T10:13:17;10.27;;;7.28;;
54993;SDS011;40891;47.242;8.648;2022-07-23T10:16:01;7.63;;;6.63;;
54993;SDS011;40891;47.242;8.648;2022-07-23T10:18:27;8.48;;;7.13;;
54993;SDS011;40891;47.242;8.648;2022-07-23T10:20:52;8.15;;;7.05;;
54993;SDS011;40891;47.242;8.648;2022-07-23T10:26:03;6.80;;;6.20;;
54993;SDS011;40891;47.242;8.648;2022-07-23T10:35:00;7.78;;;6.68;;
54993;SDS011;40891;47.242;8.648;2022-07-23T10:37:31;9.10;;;6.88;;
54993;SDS011;40891;47.242;8.648;2022-07-23T10:42:43;8.93;;;6.55;;
54993;SDS011;40891;47.242;8.648;2022-07-23T10:56:15;7.00;;;6.30;;
54993;SDS011;40891;47.242;8.648;2022-07-23T10:58:48;10.15;;;6.25;;
54993;SDS011;40891;47.242;8.648;2022-07-23T11:01:34;7.15;;;6.38;;
54993;SDS011;40891;47.242;8.648;2022-07-23T11:04:01;7.35;;;5.75;;
54993;SDS011;40891;47.242;8.648;2022-07-23T11:09:29;6.38;;;5.65;;
54993;SDS011;40891;47.242;8.648;2022-07-23T11:17:22;6.20;;;5.60;;
54993;SDS011;40891;47.242;8.648;2022-07-23T11:20:30;7.05;;;5.57;;
54993;SDS011;40891;47.242;8.648;2022-07-23T11:25:07;6.40;;;5.53;;
54993;SDS011;40891;47.242;8.648;2022-07-23T11:27:40;8.23;;;5.43;;
54993;SDS011;40891;47.242;8.648;2022-07-23T11:30:23;8.48;;;5.68;;
54993;SDS011;40891;47.242;8.648;2022-07-23T11:35:33;6.28;;;5.00;;
54993;SDS011;40891;47.242;8.648;2022-07-23T11:38:20;7.40;;;5.75;;
54993;SDS011;40891;47.242;8.648;2022-07-23T11:40:48;6.28;;;5.32;;
54993;SDS011;40891;47.242;8.648;2022-07-23T11:43:15;6.32;;;5.68;;
54993;SDS011;40891;47.242;8.648;2022-07-23T11:45:42;6.40;;;5.70;;
54993;SDS011;40891;47.242;8.648;2022-07-23T11:48:15;6.10;;;5.50;;
54993;SDS011;40891;47.242;8.648;2022-07-23T11:50:42;5.75;;;5.22;;
54993;SDS011;40891;47.242;8.648;2022-07-23T11:53:07;5.82;;;5.22;;
54993;SDS011;40891;47.242;8.648;2022-07-23T11:55:33;7.72;;;5.90;;
54993;SDS011;40891;47.242;8.648;2022-07-23T11:57:58;7.35;;;5.80;;
54993;SDS011;40891;47.242;8.648;2022-07-23T12:00:25;6.45;;;5.60;;
54993;SDS011;40891;47.242;8.648;2022-07-23T12:02:52;7.22;;;5.90;;
54993;SDS011;40891;47.242;8.648;2022-07-23T12:05:27;6.20;;;5.35;;
54993;SDS011;40891;47.242;8.648;2022-07-23T12:07:55;7.32;;;5.78;;
54993;SDS011;40891;47.242;8.648;2022-07-23T12:10:23;6.53;;;5.88;;
54993;SDS011;40891;47.242;8.648;2022-07-23T12:15:28;8.10;;;6.55;;
54993;SDS011;40891;47.242;8.648;2022-07-23T12:17:56;7.03;;;5.57;;
54993;SDS011;40891;47.242;8.648;2022-07-23T12:20:24;5.88;;;4.90;;
54993;SDS011;40891;47.242;8.648;2022-07-23T12:22:58;6.05;;;4.93;;
54993;SDS011;40891;47.242;8.648;2022-07-23T12:25:35;6.13;;;4.93;;
54993;SDS011;40891;47.242;8.648;2022-07-23T12:32:58;5.28;;;4.72;;
54993;SDS011;40891;47.242;8.648;2022-07-23T12:35:29;6.32;;;4.95;;
54993;SDS011;40891;47.242;8.648;2022-07-23T12:37:59;6.63;;;5.05;;
54993;SDS011;40891;47.242;8.648;2022-07-23T12:40:34;6.43;;;4.88;;
54993;SDS011;40891;47.242;8.648;2022-07-23T12:43:03;5.05;;;4.55;;
54993;SDS011;40891;47.242;8.648;2022-07-23T12:45:43;5.72;;;5.13;;
54993;SDS011;40891;47.242;8.648;2022-07-23T12:48:23;6.68;;;5.13;;
54993;SDS011;40891;47.242;8.648;2022-07-23T12:53:39;7.03;;;5.20;;
54993;SDS011;40891;47.242;8.648;2022-07-23T12:56:17;6.50;;;5.25;;
54993;SDS011;40891;47.242;8.648;2022-07-23T12:58:48;8.75;;;5.55;;
54993;SDS011;40891;47.242;8.648;2022-07-23T13:01:24;6.63;;;4.88;;
54993;SDS011;40891;47.242;8.648;2022-07-23T13:03:58;5.47;;;4.95;;
54993;SDS011;40891;47.242;8.648;2022-07-23T13:06:28;5.13;;;4.72;;
54993;SDS011;40891;47.242;8.648;2022-07-23T13:08:54;5.80;;;4.93;;
54993;SDS011;40891;47.242;8.648;2022-07-23T13:11:20;5.40;;;4.68;;
54993;SDS011;40891;47.242;8.648;2022-07-23T13:13:45;7.97;;;5.50;;
54993;SDS011;40891;47.242;8.648;2022-07-23T13:16:11;5.18;;;4.68;;
54993;SDS011;40891;47.242;8.648;2022-07-23T13:18:36;11.40;;;4.80;;
54993;SDS011;40891;47.242;8.648;2022-07-23T13:21:01;6.95;;;4.80;;
54993;SDS011;40891;47.242;8.648;2022-07-23T13:23:27;5.20;;;4.65;;
54993;SDS011;40891;47.242;8.648;2022-07-23T13:25:52;5.22;;;4.53;;
54993;SDS011;40891;47.242;8.648;2022-07-23T13:28:18;6.20;;;5.60;;
54993;SDS011;40891;47.242;8.648;2022-07-23T13:30:45;6.97;;;4.90;;
54993;SDS011;40891;47.242;8.648;2022-07-23T13:33:11;5.30;;;4.80;;
54993;SDS011;40891;47.242;8.648;2022-07-23T13:35:37;5.03;;;4.50;;
54993;SDS011;40891;47.242;8.648;2022-07-23T13:38:04;5.82;;;5.25;;
54993;SDS011;40891;47.242;8.648;2022-07-23T13:40:32;5.68;;;5.10;;
54993;SDS011;40891;47.242;8.648;2022-07-23T13:42:58;5.47;;;4.63;;
54993;SDS011;40891;47.242;8.648;2022-07-23T13:45:23;5.15;;;4.65;;
54993;SDS011;40891;47.242;8.648;2022-07-23T13:47:49;5.65;;;5.15;;
54993;SDS011;40891;47.242;8.648;2022-07-23T13:50:14;6.40;;;4.72;;
54993;SDS011;40891;47.242;8.648;2022-07-23T13:52:41;5.78;;;4.53;;
54993;SDS011;40891;47.242;8.648;2022-07-23T13:55:06;5.22;;;4.65;;
54993;SDS011;40891;47.242;8.648;2022-07-23T13:57:32;6.72;;;4.78;;
54993;SDS011;40891;47.242;8.648;2022-07-23T13:59:58;7.70;;;5.18;;
54993;SDS011;40891;47.242;8.648;2022-07-23T14:02:24;5.10;;;4.60;;
54993;SDS011;40891;47.242;8.648;2022-07-23T14:04:49;5.60;;;4.50;;
54993;SDS011;40891;47.242;8.648;2022-07-23T14:07:15;5.88;;;4.65;;
54993;SDS011;40891;47.242;8.648;2022-07-23T14:09:41;8.65;;;4.63;;
54993;SDS011;40891;47.242;8.648;2022-07-23T14:12:06;8.18;;;4.78;;
54993;SDS011;40891;47.242;8.648;2022-07-23T14:14:32;7.47;;;5.25;;
54993;SDS011;40891;47.242;8.648;2022-07-23T14:16:58;5.30;;;4.45;;
54993;SDS011;40891;47.242;8.648;2022-07-23T14:19:24;5.80;;;4.75;;
54993;SDS011;40891;47.242;8.648;2022-07-23T14:21:49;5.20;;;4.70;;
54993;SDS011;40891;47.242;8.648;2022-07-23T14:24:16;5.97;;;5.38;;
54993;SDS011;40891;47.242;8.648;2022-07-23T14:26:41;5.97;;;5.38;;
54993;SDS011;40891;47.242;8.648;2022-07-23T14:29:07;5.88;;;5.38;;
54993;SDS011;40891;47.242;8.648;2022-07-23T14:31:32;6.07;;;5.47;;
54993;SDS011;40891;47.242;8.648;2022-07-23T14:33:58;6.60;;;5.40;;
54993;SDS011;40891;47.242;8.648;2022-07-23T14:36:24;6.82;;;5.90;;
54993;SDS011;40891;47.242;8.648;2022-07-23T14:38:50;6.40;;;5.80;;
54993;SDS011;40891;47.242;8.648;2022-07-23T14:41:15;6.68;;;5.80;;
54993;SDS011;40891;47.242;8.648;2022-07-23T14:43:41;7.40;;;5.35;;
54993;SDS011;40891;47.242;8.648;2022-07-23T14:46:07;7.32;;;5.97;;
54993;SDS011;40891;47.242;8.648;2022-07-23T14:48:32;6.55;;;5.93;;
54993;SDS011;40891;47.242;8.648;2022-07-23T14:50:58;7.53;;;5.72;;
54993;SDS011;40891;47.242;8.648;2022-07-23T14:53:23;9.95;;;6.18;;
54993;SDS011;40891;47.242;8.648;2022-07-23T14:55:48;6.55;;;5.95;;
54993;SDS011;40891;47.242;8.648;2022-07-23T14:58:14;6.07;;;5.47;;
54993;SDS011;40891;47.242;8.648;2022-07-23T15:00:39;6.15;;;5.43;;
54993;SDS011;40891;47.242;8.648;2022-07-23T15:03:04;6.93;;;6.15;;
54993;SDS011;40891;47.242;8.648;2022-07-23T15:05:30;6.00;;;5.40;;
54993;SDS011;40891;47.242;8.648;2022-07-23T15:07:55;7.22;;;6.60;;
54993;SDS011;40891;47.242;8.648;2022-07-23T15:10:21;6.88;;;6.22;;
54993;SDS011;40891;47.242;8.648;2022-07-23T15:12:46;6.20;;;5.60;;
54993;SDS011;40891;47.242;8.648;2022-07-23T15:15:11;6.97;;;6.25;;
54993;SDS011;40891;47.242;8.648;2022-07-23T15:17:38;8.82;;;5.80;;
54993;SDS011;40891;47.242;8.648;2022-07-23T15:20:03;10.23;;;6.55;;
54993;SDS011;40891;47.242;8.648;2022-07-23T15:22:29;7.13;;;5.82;;
54993;SDS011;40891;47.242;8.648;2022-07-23T15:24:55;7.10;;;6.50;;
54993;SDS011;40891;47.242;8.648;2022-07-23T15:27:20;7.63;;;5.78;;
54993;SDS011;40891;47.242;8.648;2022-07-23T15:29:45;9.13;;;5.90;;
54993;SDS011;40891;47.242;8.648;2022-07-23T15:32:10;6.45;;;5.43;;
54993;SDS011;40891;47.242;8.648;2022-07-23T15:34:37;7.10;;;5.78;;